createdAt,value
2018-12-23T00:02:21.012Z,1.30
2018-12-23T00:04:56.127Z,1.25
2018-12-23T00:07:31.404Z,1.23
2018-12-23T00:10:06.943Z,1.27
2018-12-23T00:12:41.912Z,1.02
2018-12-23T00:15:18.068Z,1.27
2018-12-23T00:17:53.137Z,1.35
2018-12-23T00:20:28.645Z,1.45
2018-12-23T00:23:04.041Z,1.42
2018-12-23T00:28:26.546Z,1.50
2018-12-23T00:31:02.149Z,1.40
2018-12-23T00:33:37.343Z,1.20
2018-12-23T00:36:12.351Z,1.50
2018-12-23T00:38:47.576Z,2.27
2018-12-23T00:41:23.874Z,1.20
2018-12-23T00:43:59.156Z,1.40
2018-12-23T00:46:34.300Z,1.10
2018-12-23T00:49:09.445Z,0.90
2018-12-23T00:51:44.588Z,1.20
2018-12-23T00:54:19.772Z,1.35
2018-12-23T00:56:54.889Z,0.80
2018-12-23T00:59:29.976Z,1.07
2018-12-23T01:02:05.635Z,1.15
2018-12-23T01:04:41.430Z,0.90
2018-12-23T01:07:16.662Z,1.23
2018-12-23T01:09:52.772Z,1.10
2018-12-23T01:12:29.678Z,1.10
2018-12-23T01:15:05.608Z,1.05
2018-12-23T01:17:40.934Z,1.15
2018-12-23T01:20:17.081Z,0.90
2018-12-23T01:22:52.122Z,0.90
2018-12-23T01:25:27.260Z,1.00
2018-12-23T01:28:02.492Z,1.30
2018-12-23T01:30:37.726Z,0.72
2018-12-23T01:33:12.906Z,0.80
2018-12-23T01:35:48.064Z,0.98
2018-12-23T01:38:23.165Z,1.00
2018-12-23T01:40:58.529Z,1.00
2018-12-23T01:43:33.840Z,0.93
2018-12-23T01:46:09.056Z,1.20
2018-12-23T01:48:44.113Z,0.60
2018-12-23T01:51:19.323Z,1.30
2018-12-23T01:53:54.689Z,1.35
2018-12-23T01:56:30.021Z,1.62
2018-12-23T01:59:05.119Z,0.80
2018-12-23T02:01:40.382Z,0.85
2018-12-23T02:04:15.586Z,1.25
2018-12-23T02:06:50.768Z,0.90
2018-12-23T02:09:25.804Z,1.02
2018-12-23T02:12:00.774Z,1.30
2018-12-23T02:14:35.969Z,1.27
2018-12-23T02:17:11.313Z,0.70
2018-12-23T02:19:46.569Z,0.80
2018-12-23T02:22:22.057Z,0.83
2018-12-23T02:24:57.140Z,0.95
2018-12-23T02:27:32.612Z,1.22
2018-12-23T02:30:08.749Z,1.60
2018-12-23T02:32:43.877Z,1.12
2018-12-23T02:35:18.897Z,1.00
2018-12-23T02:37:54.024Z,1.00
2018-12-23T02:40:29.290Z,0.90
2018-12-23T02:43:04.331Z,1.20
2018-12-23T02:45:40.083Z,0.95
2018-12-23T02:48:15.177Z,1.40
2018-12-23T02:50:50.344Z,0.75
2018-12-23T02:53:25.580Z,1.17
2018-12-23T02:56:01.210Z,0.80
2018-12-23T02:58:36.334Z,0.70
2018-12-23T03:01:11.697Z,0.95
2018-12-23T03:03:46.910Z,0.70
2018-12-23T03:06:22.055Z,1.00
2018-12-23T03:08:57.076Z,0.70
2018-12-23T03:11:32.182Z,1.10
2018-12-23T03:14:07.445Z,1.15
2018-12-23T03:16:42.720Z,1.32
2018-12-23T03:19:17.922Z,1.05
2018-12-23T03:21:52.989Z,1.45
2018-12-23T03:24:28.207Z,1.07
2018-12-23T03:27:04.185Z,0.90
2018-12-23T03:29:39.394Z,1.15
2018-12-23T03:32:14.545Z,1.55
2018-12-23T03:34:49.888Z,1.40
2018-12-23T03:37:24.997Z,1.17
2018-12-23T03:40:00.161Z,1.15
2018-12-23T03:42:35.378Z,1.47
2018-12-23T03:45:10.467Z,1.45
2018-12-23T03:47:45.752Z,1.30
2018-12-23T03:50:21.012Z,1.35
2018-12-23T03:52:56.124Z,1.55
2018-12-23T03:55:31.367Z,1.75
2018-12-23T03:58:06.503Z,1.20
2018-12-23T04:00:41.764Z,1.55
2018-12-23T04:03:16.967Z,1.15
2018-12-23T04:05:52.140Z,1.27
2018-12-23T04:08:27.078Z,1.27
2018-12-23T04:11:02.310Z,1.22
2018-12-23T04:13:37.618Z,1.02
2018-12-23T04:16:12.764Z,0.85
2018-12-23T04:18:48.233Z,0.75
2018-12-23T04:21:23.465Z,0.93
2018-12-23T04:23:58.632Z,0.72
2018-12-23T04:26:33.864Z,1.62
2018-12-23T04:29:10.186Z,1.02
2018-12-23T04:31:45.458Z,1.60
2018-12-23T04:34:20.654Z,0.82
2018-12-23T04:36:55.797Z,1.00
2018-12-23T04:39:31.013Z,1.00
2018-12-23T04:42:06.180Z,0.90
2018-12-23T04:44:41.236Z,1.17
2018-12-23T04:47:16.468Z,0.90
2018-12-23T04:49:51.610Z,1.20
2018-12-23T04:52:26.725Z,0.70
2018-12-23T04:55:01.734Z,1.02
2018-12-23T04:57:37.416Z,0.80
2018-12-23T05:00:12.415Z,1.15
2018-12-23T05:02:47.756Z,0.62
2018-12-23T05:05:22.916Z,0.80
2018-12-23T05:07:58.061Z,1.20
2018-12-23T05:10:33.274Z,0.70
2018-12-23T05:13:08.470Z,1.35
2018-12-23T05:15:43.657Z,0.98
2018-12-23T05:18:18.999Z,1.17
2018-12-23T05:20:54.238Z,1.00
2018-12-23T05:23:29.569Z,1.30
2018-12-23T05:26:04.913Z,1.20
2018-12-23T05:28:40.147Z,1.20
2018-12-23T05:31:15.109Z,1.45
2018-12-23T05:33:50.305Z,1.10
2018-12-23T05:36:25.467Z,1.30
2018-12-23T05:39:00.730Z,0.90
2018-12-23T05:41:35.869Z,0.90
2018-12-23T05:44:11.014Z,0.80
2018-12-23T05:46:46.174Z,0.90
2018-12-23T05:49:21.354Z,0.75
2018-12-23T05:51:56.279Z,0.70
2018-12-23T05:54:31.421Z,0.80
2018-12-23T05:57:07.673Z,1.05
2018-12-23T05:59:42.921Z,0.90
2018-12-23T06:02:17.951Z,0.90
2018-12-23T06:04:52.965Z,0.90
2018-12-23T06:07:28.721Z,1.07
2018-12-23T06:10:04.691Z,1.10
2018-12-23T06:12:39.697Z,0.80
2018-12-23T06:15:14.816Z,0.70
2018-12-23T06:17:49.964Z,0.60
2018-12-23T06:20:25.193Z,2.02
2018-12-23T06:23:00.280Z,1.33
2018-12-23T06:25:35.505Z,0.85
2018-12-23T06:28:12.232Z,1.00
2018-12-23T06:30:47.361Z,1.22
2018-12-23T06:33:22.521Z,0.78
2018-12-23T06:35:57.612Z,1.20
2018-12-23T06:38:34.553Z,1.10
2018-12-23T06:41:10.091Z,0.90
2018-12-23T06:43:45.006Z,0.75
2018-12-23T06:46:20.288Z,0.95
2018-12-23T06:48:55.510Z,0.98
2018-12-23T06:51:30.701Z,0.90
2018-12-23T06:54:05.814Z,0.75
2018-12-23T06:56:41.016Z,0.78
2018-12-23T06:59:16.207Z,0.70
2018-12-23T07:01:51.551Z,0.88
2018-12-23T07:04:26.816Z,0.70
2018-12-23T07:07:02.045Z,0.93
2018-12-23T07:09:37.363Z,0.82
2018-12-23T07:12:12.413Z,0.60
2018-12-23T07:14:47.665Z,0.90
2018-12-23T07:17:22.801Z,1.10
2018-12-23T07:19:58.517Z,1.00
2018-12-23T07:22:33.737Z,1.10
2018-12-23T07:25:09.037Z,1.20
2018-12-23T07:27:44.569Z,1.15
2018-12-23T07:30:19.714Z,1.40
2018-12-23T07:32:54.792Z,1.30
2018-12-23T07:35:30.003Z,1.20
2018-12-23T07:38:05.225Z,1.33
2018-12-23T07:40:40.541Z,1.70
2018-12-23T07:43:15.782Z,1.40
2018-12-23T07:45:50.893Z,1.60
2018-12-23T07:48:26.083Z,1.02
2018-12-23T07:51:01.481Z,1.50
2018-12-23T07:53:37.373Z,1.30
2018-12-23T07:56:12.534Z,1.45
2018-12-23T07:58:47.611Z,1.20
2018-12-23T08:01:22.970Z,1.40
2018-12-23T08:03:58.037Z,1.40
2018-12-23T08:06:33.280Z,1.40
2018-12-23T08:09:08.357Z,1.10
2018-12-23T08:11:43.321Z,1.30
2018-12-23T08:14:18.557Z,1.55
2018-12-23T08:16:53.872Z,1.50
2018-12-23T08:19:29.037Z,1.12
2018-12-23T08:22:04.290Z,2.40
2018-12-23T08:24:39.393Z,2.35
2018-12-23T08:27:14.652Z,3.20
2018-12-23T08:29:49.878Z,2.75
2018-12-23T08:32:25.238Z,1.30
2018-12-23T08:35:00.469Z,1.57
2018-12-23T08:37:35.749Z,1.63
2018-12-23T08:40:10.841Z,1.40
2018-12-23T08:42:45.958Z,1.95
2018-12-23T08:45:21.003Z,1.42
2018-12-23T08:47:56.356Z,1.35
2018-12-23T08:50:31.579Z,1.40
2018-12-23T08:53:06.859Z,1.23
2018-12-23T08:55:42.088Z,1.60
2018-12-23T08:58:17.321Z,1.42
2018-12-23T09:00:52.462Z,1.80
2018-12-23T09:03:27.689Z,1.72
2018-12-23T09:06:03.307Z,1.60
2018-12-23T09:08:38.588Z,1.70
2018-12-23T09:11:13.761Z,3.27
2018-12-23T09:13:48.895Z,1.55
2018-12-23T09:16:24.125Z,2.02
2018-12-23T09:18:59.148Z,2.25
2018-12-23T09:21:34.266Z,2.80
2018-12-23T09:24:09.437Z,1.95
2018-12-23T09:26:44.689Z,1.65
2018-12-23T09:29:19.687Z,1.82
2018-12-23T09:31:54.831Z,1.90
2018-12-23T09:34:30.079Z,2.33
2018-12-23T09:37:05.124Z,1.65
2018-12-23T09:39:40.491Z,1.42
2018-12-23T09:42:15.529Z,2.20
2018-12-23T09:44:50.597Z,2.15
2018-12-23T09:47:25.739Z,2.75
2018-12-23T09:50:01.069Z,2.40
2018-12-23T09:52:36.276Z,2.50
2018-12-23T09:55:11.368Z,2.45
2018-12-23T09:57:46.527Z,2.20
2018-12-23T10:00:21.769Z,3.00
2018-12-23T10:02:56.994Z,3.12
2018-12-23T10:05:32.106Z,2.47
2018-12-23T10:08:10.254Z,2.40
2018-12-23T10:10:44.339Z,1.70
2018-12-23T10:13:19.545Z,1.80
2018-12-23T10:15:54.664Z,2.50
2018-12-23T10:18:29.861Z,2.50
2018-12-23T10:21:05.242Z,2.37
2018-12-23T10:23:40.463Z,2.10
2018-12-23T10:26:16.493Z,2.12
2018-12-23T10:28:51.711Z,2.75
2018-12-23T10:31:26.808Z,2.08
2018-12-23T10:34:02.041Z,2.00
2018-12-23T10:36:37.386Z,2.53
2018-12-23T10:39:12.595Z,1.40
2018-12-23T10:41:47.899Z,2.22
2018-12-23T10:44:22.921Z,2.12
2018-12-23T10:46:58.275Z,1.87
2018-12-23T10:49:33.470Z,2.27
2018-12-23T10:52:08.701Z,1.50
2018-12-23T10:54:43.903Z,2.35
2018-12-23T10:57:19.136Z,1.90
2018-12-23T10:59:54.334Z,2.40
2018-12-23T11:02:29.542Z,1.60
2018-12-23T11:05:04.894Z,2.50
2018-12-23T11:07:40.133Z,2.58
2018-12-23T11:10:15.403Z,1.80
2018-12-23T11:12:50.547Z,1.77
2018-12-23T11:15:25.779Z,2.30
2018-12-23T11:18:01.053Z,1.98
2018-12-23T11:20:36.182Z,2.35
2018-12-23T11:23:11.403Z,1.53
2018-12-23T11:25:46.479Z,2.00
2018-12-23T11:28:21.616Z,1.85
2018-12-23T11:30:56.874Z,1.60
2018-12-23T11:33:33.566Z,2.40
2018-12-23T11:36:08.852Z,1.80
2018-12-23T11:38:44.012Z,2.15
2018-12-23T11:41:19.380Z,1.95
2018-12-23T11:43:54.507Z,1.72
2018-12-23T11:46:29.825Z,1.90
2018-12-23T11:49:05.038Z,1.70
2018-12-23T11:51:40.276Z,1.60
2018-12-23T11:54:15.504Z,1.90
2018-12-23T11:56:50.635Z,2.08
2018-12-23T11:59:25.787Z,1.77
2018-12-23T12:02:00.902Z,2.05
2018-12-23T12:04:36.002Z,1.62
2018-12-23T12:07:11.179Z,2.10
2018-12-23T12:09:46.179Z,2.72
2018-12-23T12:12:21.288Z,1.98
2018-12-23T12:14:56.340Z,1.62
2018-12-23T12:17:31.531Z,2.27
2018-12-23T12:20:07.076Z,1.72
2018-12-23T12:22:42.261Z,2.40
2018-12-23T12:25:17.504Z,1.70
2018-12-23T12:27:52.666Z,1.87
2018-12-23T12:30:27.792Z,2.05
2018-12-23T12:33:02.865Z,1.45
2018-12-23T12:38:53.262Z,1.60
2018-12-23T12:41:43.902Z,2.52
2018-12-23T12:44:34.939Z,2.05
2018-12-23T12:47:25.681Z,2.20
2018-12-23T12:50:16.274Z,2.47
2018-12-23T12:53:06.984Z,1.97
2018-12-23T12:55:57.611Z,3.10
2018-12-23T12:58:48.537Z,1.72
2018-12-23T13:01:38.900Z,1.95
2018-12-23T13:04:29.703Z,1.55
2018-12-23T13:07:20.223Z,1.80
2018-12-23T13:10:11.107Z,1.87
2018-12-23T13:13:01.731Z,1.60
2018-12-23T13:15:52.859Z,1.80
2018-12-23T13:18:43.689Z,1.72
2018-12-23T13:21:34.244Z,1.20
2018-12-23T13:24:25.005Z,1.22
2018-12-23T13:27:15.464Z,1.50
2018-12-23T13:30:07.835Z,1.42
2018-12-23T13:32:58.497Z,1.42
2018-12-23T13:35:49.167Z,1.45
2018-12-23T13:38:39.678Z,1.25
2018-12-23T13:41:55.528Z,1.20
2018-12-23T13:45:35.492Z,2.15
2018-12-23T13:49:21.512Z,1.25
2018-12-23T13:52:32.381Z,1.02
2018-12-23T13:55:53.367Z,1.12
2018-12-23T13:59:36.892Z,0.80
2018-12-23T14:02:55.042Z,1.10
2018-12-23T14:06:27.733Z,1.12
2018-12-23T14:09:53.816Z,1.35
2018-12-23T14:12:44.186Z,1.55
2018-12-23T14:15:34.744Z,1.35
2018-12-23T14:18:25.721Z,1.40
2018-12-23T14:21:16.398Z,1.30
2018-12-23T14:24:06.999Z,1.37
2018-12-23T14:26:57.441Z,1.07
2018-12-23T14:29:48.192Z,1.20
2018-12-23T14:32:39.032Z,0.72
2018-12-23T14:35:32.129Z,0.90
2018-12-23T14:38:21.831Z,1.30
2018-12-23T14:41:12.499Z,1.20
2018-12-23T14:44:02.845Z,1.07
2018-12-23T14:46:53.838Z,1.30
2018-12-23T14:49:44.453Z,1.60
2018-12-23T14:52:35.383Z,1.50
2018-12-23T14:55:25.866Z,1.70
2018-12-23T14:58:16.125Z,2.12
2018-12-23T15:01:06.545Z,4.20
2018-12-23T15:03:57.237Z,3.55
2018-12-23T15:06:48.238Z,2.30
2018-12-23T15:09:39.149Z,1.37
2018-12-23T15:12:30.023Z,16.10
2018-12-23T15:15:20.526Z,13.78
2018-12-23T15:18:11.135Z,5.87
2018-12-23T15:21:01.460Z,3.10
2018-12-23T15:23:51.824Z,1.07
2018-12-23T15:26:42.336Z,1.52
2018-12-23T15:29:32.900Z,1.47
2018-12-23T15:32:23.850Z,1.62
2018-12-23T15:35:14.414Z,5.12
2018-12-23T15:38:05.292Z,2.58
2018-12-23T15:40:56.367Z,1.77
2018-12-23T15:43:47.319Z,1.57
2018-12-23T15:46:41.047Z,1.00
2018-12-23T15:49:31.815Z,1.00
2018-12-23T15:52:22.434Z,1.40
2018-12-23T15:55:13.380Z,0.80
2018-12-23T15:58:03.960Z,0.90
2018-12-23T16:00:54.731Z,1.10
2018-12-23T16:03:45.483Z,1.12
2018-12-23T16:06:36.168Z,1.40
2018-12-23T16:09:27.158Z,3.08
2018-12-23T16:12:17.976Z,1.50
2018-12-23T16:15:08.336Z,1.70
2018-12-23T16:17:58.942Z,1.20
2018-12-23T16:20:49.617Z,1.65
2018-12-23T16:23:40.211Z,1.47
2018-12-23T16:26:31.061Z,1.55
2018-12-23T16:29:21.571Z,1.15
2018-12-23T16:32:12.606Z,1.10
2018-12-23T16:35:03.521Z,2.22
2018-12-23T16:37:54.517Z,0.90
2018-12-23T16:40:45.297Z,0.60
2018-12-23T16:43:35.837Z,1.10
2018-12-23T16:46:26.519Z,0.80
2018-12-23T16:49:16.917Z,3.70
2018-12-23T16:52:07.843Z,1.00
2018-12-23T16:54:58.190Z,1.20
2018-12-23T16:57:49.096Z,1.17
2018-12-23T17:00:39.503Z,1.30
2018-12-23T17:03:29.907Z,1.10
2018-12-23T17:06:20.288Z,0.53
2018-12-23T17:09:10.657Z,0.80
2018-12-23T17:12:01.416Z,0.80
2018-12-23T17:14:52.524Z,1.07
2018-12-23T17:17:44.016Z,0.80
2018-12-23T17:20:34.268Z,3.80
2018-12-23T17:23:25.288Z,2.12
2018-12-23T17:26:15.903Z,2.60
2018-12-23T17:29:05.848Z,2.05
2018-12-23T17:31:56.062Z,1.40
2018-12-23T17:34:46.745Z,1.20
2018-12-23T17:37:37.456Z,1.20
2018-12-23T17:40:28.387Z,1.00
2018-12-23T17:43:19.262Z,1.70
2018-12-23T17:46:10.415Z,1.40
2018-12-23T17:49:01.756Z,1.15
2018-12-23T17:51:52.610Z,1.60
2018-12-23T17:54:43.391Z,1.72
2018-12-23T17:57:33.577Z,1.10
2018-12-23T18:00:24.093Z,1.20
2018-12-23T18:03:14.720Z,2.10
2018-12-23T18:06:05.669Z,2.33
2018-12-23T18:08:55.998Z,3.42
2018-12-23T18:11:46.963Z,3.15
2018-12-23T18:14:37.832Z,1.57
2018-12-23T18:17:28.358Z,2.10
2018-12-23T18:20:19.586Z,1.35
2018-12-23T18:23:10.377Z,0.90
2018-12-23T18:26:01.476Z,1.22
2018-12-23T18:28:52.578Z,0.80
2018-12-23T18:31:42.831Z,1.05
2018-12-23T18:34:33.463Z,1.00
2018-12-23T18:37:23.834Z,1.30
2018-12-23T18:40:14.390Z,0.80
2018-12-23T18:43:04.963Z,1.00
2018-12-23T18:45:55.452Z,0.80
2018-12-23T18:48:46.039Z,0.78
2018-12-23T18:51:36.681Z,0.70
2018-12-23T18:54:27.503Z,0.80
2018-12-23T18:57:19.424Z,1.80
2018-12-23T19:00:10.929Z,1.98
2018-12-23T19:03:02.072Z,2.20
2018-12-23T19:05:52.986Z,0.90
2018-12-23T19:09:21.445Z,0.98
2018-12-23T19:12:39.751Z,1.80
2018-12-23T19:16:06.513Z,1.20
2018-12-23T19:19:59.987Z,1.20
2018-12-23T19:23:30.661Z,1.00
2018-12-23T19:26:58.197Z,0.95
2018-12-23T19:30:12.667Z,1.75
2018-12-23T19:33:47.011Z,1.40
2018-12-23T19:37:13.777Z,1.00
2018-12-23T19:41:06.166Z,0.80
2018-12-23T19:44:33.377Z,1.02
2018-12-23T19:48:05.717Z,0.80
2018-12-23T19:51:31.836Z,0.95
2018-12-23T19:54:52.877Z,1.42
2018-12-23T19:58:19.679Z,1.32
2018-12-23T20:01:43.001Z,0.95
2018-12-23T20:05:10.779Z,0.70
2018-12-23T20:08:48.057Z,1.10
2018-12-23T20:12:07.560Z,0.68
2018-12-23T20:15:39.017Z,0.65
2018-12-23T20:19:26.121Z,0.70
2018-12-23T20:22:32.243Z,0.50
2018-12-23T20:25:45.497Z,0.40
2018-12-23T20:29:31.913Z,0.53
2018-12-23T20:32:53.426Z,0.40
2018-12-23T20:36:32.065Z,0.60
2018-12-23T20:40:24.679Z,0.57
2018-12-23T20:43:59.290Z,0.60
2018-12-23T20:47:16.813Z,0.60
2018-12-23T20:50:50.046Z,0.50
2018-12-23T20:54:26.896Z,0.50
2018-12-23T20:58:04.829Z,0.60
2018-12-23T21:02:06.788Z,0.40
2018-12-23T21:06:08.787Z,0.50
2018-12-23T21:09:46.868Z,0.60
2018-12-23T21:13:05.111Z,0.50
2018-12-23T21:16:25.449Z,0.70
2018-12-23T21:20:01.777Z,0.60
2018-12-23T21:23:28.716Z,0.62
2018-12-23T21:27:05.089Z,0.40
2018-12-23T21:30:32.524Z,0.60
2018-12-23T21:34:05.643Z,0.50
2018-12-23T21:37:23.512Z,0.60
2018-12-23T21:41:09.369Z,0.45
2018-12-23T21:44:36.055Z,1.77
2018-12-23T21:48:00.119Z,0.70
2018-12-23T21:51:40.624Z,0.42
2018-12-23T21:55:02.010Z,0.50
2018-12-23T21:58:25.487Z,0.47
2018-12-23T22:02:04.926Z,0.53
2018-12-23T22:05:14.657Z,0.47
2018-12-23T22:09:04.695Z,0.40
2018-12-23T22:12:35.456Z,0.78
2018-12-23T22:15:26.275Z,0.50
2018-12-23T22:18:17.297Z,0.50
2018-12-23T22:21:08.566Z,0.40
2018-12-23T22:23:59.252Z,0.57
2018-12-23T22:26:50.285Z,0.53
2018-12-23T22:29:41.042Z,0.50
2018-12-23T22:32:31.741Z,0.40
2018-12-23T22:35:22.082Z,0.50
2018-12-23T22:38:12.833Z,0.30
2018-12-23T22:41:09.879Z,0.70
2018-12-23T22:44:00.096Z,0.90
2018-12-23T22:46:50.477Z,0.50
2018-12-23T22:49:40.760Z,0.30
2018-12-23T22:52:31.430Z,0.50
2018-12-23T22:55:22.341Z,0.50
2018-12-23T22:58:12.991Z,0.30
2018-12-23T23:01:03.666Z,0.40
2018-12-23T23:03:54.195Z,0.40
2018-12-23T23:06:44.499Z,0.60
2018-12-23T23:09:35.239Z,0.30
2018-12-23T23:12:26.204Z,0.40
2018-12-23T23:15:16.908Z,0.40
2018-12-23T23:18:07.320Z,0.40
2018-12-23T23:20:58.296Z,0.40
2018-12-23T23:23:49.178Z,0.47
2018-12-23T23:26:39.242Z,0.40
2018-12-23T23:29:29.944Z,0.50
2018-12-23T23:32:20.916Z,0.35
2018-12-23T23:35:11.774Z,0.40
2018-12-23T23:38:02.379Z,0.40
2018-12-23T23:40:53.265Z,0.40
2018-12-23T23:43:43.693Z,0.30
2018-12-23T23:46:34.702Z,0.35
2018-12-23T23:49:25.361Z,0.40
2018-12-23T23:52:15.932Z,0.47
2018-12-23T23:55:07.017Z,0.50
2018-12-23T23:57:57.124Z,0.40
